Time;durP1;ratioP1;P1;durP2;ratioP2;P2;SDS_P1;SDS_P2;PMS_P1;PMS_P2;Temp;Humidity;BMP_temperature;BMP_pressure;BME280_temperature;BME280_humidity;BME280_pressure;Samples;Min_cycle;Max_cycle;Signal;HPM_P1;HPM_P2
2022/10/09 00:02:20;;;;;;;1999.90;999.90;;;7.60;99.90;;;;;;6760802;87;20317;-79
2022/10/09 00:12:20;;;;;;;1999.90;999.90;;;7.60;99.90;;;;;;6759406;88;20732;-80
2022/10/09 00:22:21;;;;;;;1999.90;999.90;;;7.60;99.90;;;;;;6763290;87;20213;-79
2022/10/09 00:32:22;;;;;;;1999.90;999.90;;;7.50;99.90;;;;;;6762853;87;20722;-79
2022/10/09 00:42:25;;;;;;;1999.90;999.90;;;7.20;99.90;;;;;;6755068;87;20188;-80
2022/10/09 00:52:26;;;;;;;1999.90;999.90;;;7.20;99.90;;;;;;6758142;87;20666;-79
2022/10/09 01:02:26;;;;;;;1999.90;999.90;;;7.30;99.90;;;;;;6758426;87;20234;-77
2022/10/09 01:13:07;;;;;;;1999.90;999.90;;;6.90;99.90;;;;;;6756986;87;20168;-79
2022/10/09 01:23:33;;;;;;;1999.90;999.90;;;6.90;99.90;;;;;;6761141;87;20189;-79
2022/10/09 01:33:34;;;;;;;1999.90;999.90;;;7.00;99.90;;;;;;6761294;87;20187;-78
2022/10/09 01:43:35;;;;;;;1999.90;999.90;;;6.90;99.90;;;;;;6762822;87;20710;-79
2022/10/09 01:53:35;;;;;;;1999.90;999.90;;;6.80;99.90;;;;;;6763637;87;20213;-78
2022/10/09 02:03:39;;;;;;;1999.90;999.90;;;6.70;99.90;;;;;;6759615;87;20221;-77
2022/10/09 02:13:40;;;;;;;1999.90;999.90;;;6.60;99.90;;;;;;6758588;87;20292;-79
2022/10/09 02:23:43;;;;;;;1999.90;999.90;;;6.30;99.90;;;;;;6759854;87;20220;-78
2022/10/09 02:33:44;;;;;;;1999.90;999.90;;;6.30;99.90;;;;;;6757271;87;20200;-78
2022/10/09 02:43:45;;;;;;;1999.90;999.90;;;6.20;99.90;;;;;;6763275;87;20254;-78
2022/10/09 02:53:45;;;;;;;1999.90;999.90;;;6.10;99.90;;;;;;6759845;87;20268;-77
2022/10/09 03:03:46;;;;;;;1999.90;999.90;;;6.10;99.90;;;;;;6760083;87;20206;-77
2022/10/09 03:13:47;;;;;;;1999.90;999.90;;;6.20;99.90;;;;;;6759609;87;20309;-78
2022/10/09 03:23:49;;;;;;;1999.90;999.90;;;6.10;99.90;;;;;;6764762;87;20221;-78
2022/10/09 03:34:30;;;;;;;1999.90;999.90;;;6.10;99.90;;;;;;6771169;77;20187;-78
2022/10/09 03:44:31;;;;;;;1999.90;999.90;;;5.90;99.90;;;;;;6755861;88;20239;-78
2022/10/09 03:54:32;;;;;;;1999.90;999.90;;;5.80;99.90;;;;;;6748689;88;20206;-78
2022/10/09 04:04:32;;;;;;;1999.90;999.90;;;5.80;99.90;;;;;;6760255;88;20199;-78
2022/10/09 04:14:33;;;;;;;1999.90;999.90;;;5.70;99.90;;;;;;6762236;88;20196;-78
2022/10/09 04:24:33;;;;;;;1999.90;999.90;;;5.80;99.90;;;;;;6760926;88;20189;-78
2022/10/09 04:34:34;;;;;;;1999.90;999.90;;;5.60;99.90;;;;;;6752734;88;20187;-78
2022/10/09 04:44:34;;;;;;;1999.90;999.90;;;5.50;99.90;;;;;;6761202;88;20209;-78
2022/10/09 04:54:35;;;;;;;1999.90;999.90;;;5.50;99.90;;;;;;6750880;88;20282;-79
2022/10/09 05:04:35;;;;;;;1999.90;999.90;;;5.40;99.90;;;;;;6760096;88;20221;-78
2022/10/09 05:14:36;;;;;;;1999.90;999.90;;;5.40;99.90;;;;;;6760244;88;20209;-78
2022/10/09 05:24:36;;;;;;;1999.90;999.90;;;5.70;99.90;;;;;;6768293;88;20309;-79
2022/10/09 05:34:37;;;;;;;1999.90;999.90;;;5.80;99.90;;;;;;6769168;87;20286;-79
2022/10/09 05:44:38;;;;;;;1999.90;999.90;;;5.80;99.90;;;;;;6766060;88;20800;-80
2022/10/09 05:54:38;;;;;;;1999.90;999.90;;;5.70;99.90;;;;;;6764922;88;20531;-79
2022/10/09 06:04:39;;;;;;;1999.90;999.90;;;5.60;99.90;;;;;;6767374;88;20195;-80
2022/10/09 06:14:39;;;;;;;1999.90;999.90;;;5.70;99.90;;;;;;6753989;88;20599;-79
2022/10/09 06:24:40;;;;;;;1999.90;999.90;;;5.80;99.90;;;;;;6750907;88;20192;-79
2022/10/09 06:34:40;;;;;;;1999.90;999.90;;;6.00;99.90;;;;;;6749887;88;20204;-80
2022/10/09 06:44:43;;;;;;;1999.90;999.90;;;6.10;99.90;;;;;;6759920;88;20206;-79
2022/10/09 06:54:43;;;;;;;1999.90;999.90;;;6.20;99.90;;;;;;6761380;88;20164;-81
2022/10/09 07:04:45;;;;;;;1999.90;999.90;;;6.10;99.90;;;;;;6771978;88;20216;-79
2022/10/09 07:14:46;;;;;;;1999.90;999.90;;;6.30;99.90;;;;;;6762088;88;21196;-80
2022/10/09 07:24:49;;;;;;;1999.90;999.90;;;6.40;99.90;;;;;;6756406;88;20238;-79
2022/10/09 07:34:49;;;;;;;1999.90;999.90;;;6.50;99.90;;;;;;6761380;88;20218;-79
2022/10/09 07:44:50;;;;;;;1999.90;999.90;;;6.90;99.90;;;;;;6758067;88;20238;-78
2022/10/09 07:54:50;;;;;;;1999.90;999.90;;;7.90;99.90;;;;;;6758201;88;20205;-79
2022/10/09 08:04:51;;;;;;;1999.90;999.90;;;9.30;99.90;;;;;;6751231;88;20230;-79
2022/10/09 08:14:51;;;;;;;1999.90;999.90;;;9.80;99.90;;;;;;6754815;88;20222;-78
2022/10/09 08:24:52;;;;;;;1999.90;999.90;;;10.70;99.90;;;;;;6749190;88;20272;-78
2022/10/09 08:34:52;;;;;;;1999.90;999.90;;;11.20;99.90;;;;;;6750625;88;20197;-79
2022/10/09 08:44:53;;;;;;;1999.90;999.90;;;11.60;99.90;;;;;;6749494;88;21028;-80
2022/10/09 08:54:59;;;;;;;1999.90;999.90;;;12.20;99.90;;;;;;6746134;88;20668;-79
2022/10/09 09:05:31;;;;;;;1999.90;999.90;;;13.30;99.90;;;;;;6753104;88;20175;-79
2022/10/09 09:15:51;;;;;;;1999.90;999.90;;;14.10;99.90;;;;;;6751354;88;20288;-79
2022/10/09 09:25:51;;;;;;;1999.90;999.90;;;14.40;99.90;;;;;;6756340;88;20316;-78
2022/10/09 09:36:07;;;;;;;1999.90;999.90;;;14.30;99.90;;;;;;6753939;88;20189;-78
2022/10/09 09:46:17;;;;;;;1999.90;999.90;;;15.20;99.90;;;;;;6746719;88;20272;-78
2022/10/09 09:56:18;;;;;;;1999.90;999.90;;;15.30;99.90;;;;;;6760728;88;20204;-79
2022/10/09 10:06:30;;;;;;;1999.90;999.90;;;15.50;99.90;;;;;;6761679;88;20223;-78
2022/10/09 10:16:35;;;;;;;1999.90;999.90;;;15.50;99.90;;;;;;6755023;88;20225;-79
2022/10/09 10:26:57;;;;;;;1999.90;999.90;;;16.00;99.90;;;;;;6751395;88;20312;-78
2022/10/09 10:37:16;;;;;;;1999.90;999.90;;;16.10;99.90;;;;;;6752195;88;20192;-80
2022/10/09 10:47:25;;;;;;;1999.90;999.90;;;17.00;99.90;;;;;;6753418;87;20228;-78
2022/10/09 10:57:50;;;;;;;1999.90;999.90;;;17.30;99.90;;;;;;6753008;88;20197;-78
2022/10/09 11:08:13;;;;;;;1999.90;999.90;;;18.20;99.90;;;;;;6750754;88;20206;-78
2022/10/09 11:18:44;;;;;;;1999.90;999.90;;;18.60;99.90;;;;;;6750623;88;20216;-80
2022/10/09 11:28:53;;;;;;;1999.90;999.90;;;19.10;99.90;;;;;;6747292;88;20232;-80
2022/10/09 11:38:58;;;;;;;1999.90;999.90;;;19.30;99.90;;;;;;6743235;88;20724;-79
2022/10/09 11:49:22;;;;;;;1999.90;999.90;;;20.00;99.90;;;;;;6745848;88;20197;-80
2022/10/09 11:59:40;;;;;;;1999.90;999.90;;;19.90;98.60;;;;;;6745705;88;20231;-79
2022/10/09 12:09:46;;;;;;;1999.90;999.90;;;19.40;98.50;;;;;;6744084;88;20189;-80
2022/10/09 12:19:55;;;;;;;1999.90;999.90;;;19.00;98.40;;;;;;6744138;88;20659;-78
2022/10/09 12:30:15;;;;;;;1999.90;999.90;;;18.60;98.60;;;;;;6744333;88;20228;-80
2022/10/09 12:40:28;;;;;;;1999.90;999.90;;;19.30;97.90;;;;;;6743407;88;20405;-81
2022/10/09 12:50:33;;;;;;;1999.90;999.90;;;19.20;98.20;;;;;;6746758;88;20185;-79
2022/10/09 13:00:34;;;;;;;1999.90;999.90;;;19.90;97.40;;;;;;6743615;88;20192;-80
2022/10/09 13:10:35;;;;;;;1999.90;999.90;;;19.80;97.60;;;;;;6742250;88;20220;-81
2022/10/09 13:20:35;;;;;;;1999.90;999.90;;;20.30;97.10;;;;;;6742443;88;20241;-80
2022/10/09 13:30:36;;;;;;;1999.90;999.90;;;19.40;98.40;;;;;;6744794;88;20223;-79
2022/10/09 13:40:38;;;;;;;1999.90;999.90;;;19.60;97.40;;;;;;6750341;88;20229;-80
2022/10/09 13:50:38;;;;;;;1999.90;999.90;;;20.40;97.10;;;;;;6745013;88;20208;-80
2022/10/09 14:00:39;;;;;;;1999.90;999.90;;;19.90;97.10;;;;;;6746795;88;20701;-80
2022/10/09 14:10:41;;;;;;;1999.90;999.90;;;20.30;97.40;;;;;;6747254;88;20184;-81
2022/10/09 14:20:41;;;;;;;1999.90;999.90;;;20.80;96.40;;;;;;6751874;88;20244;-79
2022/10/09 14:30:42;;;;;;;1999.90;999.90;;;20.30;96.90;;;;;;6744641;88;20265;-80
2022/10/09 14:40:44;;;;;;;1999.90;999.90;;;19.80;97.40;;;;;;6743372;88;20189;-80
2022/10/09 14:50:44;;;;;;;1999.90;999.90;;;19.30;96.90;;;;;;6743210;88;20327;-79
2022/10/09 15:00:46;;;;;;;1999.90;999.90;;;19.90;96.00;;;;;;6744078;88;20215;-79
2022/10/09 15:10:49;;;;;;;1999.90;999.90;;;20.20;95.30;;;;;;6742937;88;20200;-78
2022/10/09 15:20:49;;;;;;;1999.90;999.90;;;19.40;95.20;;;;;;6742651;88;20197;-79
2022/10/09 15:30:56;;;;;;;1999.90;999.90;;;19.40;94.50;;;;;;6745739;88;20266;-80
2022/10/09 15:40:57;;;;;;;1999.90;999.90;;;19.10;95.40;;;;;;6749123;88;20216;-78
2022/10/09 15:51:05;;;;;;;1999.90;999.90;;;18.60;96.00;;;;;;6750776;87;20193;-79
2022/10/09 16:01:08;;;;;;;1999.90;999.90;;;18.30;96.60;;;;;;6765504;88;20256;-77
2022/10/09 16:11:11;;;;;;;1999.90;999.90;;;18.00;96.80;;;;;;6755991;88;20294;-79
2022/10/09 16:21:17;;;;;;;1999.90;999.90;;;17.80;97.20;;;;;;6758451;87;20249;-80
2022/10/09 16:31:19;;;;;;;1999.90;999.90;;;17.40;97.90;;;;;;6762568;88;20730;-78
2022/10/09 16:41:21;;;;;;;1999.90;999.90;;;17.00;98.80;;;;;;6769070;88;20184;-82
2022/10/09 16:51:28;;;;;;;1999.90;999.90;;;16.60;99.20;;;;;;6767006;87;20169;-81
2022/10/09 17:01:29;;;;;;;1999.90;999.90;;;16.40;99.80;;;;;;6758484;88;20216;-80
2022/10/09 17:11:31;;;;;;;1999.90;999.90;;;15.90;99.90;;;;;;6769058;87;20219;-79
2022/10/09 17:21:32;;;;;;;1999.90;999.90;;;15.50;99.90;;;;;;6768898;87;20224;-78
2022/10/09 17:31:33;;;;;;;1999.90;999.90;;;15.10;99.90;;;;;;6764497;88;20178;-78
2022/10/09 17:41:34;;;;;;;1999.90;999.90;;;14.60;99.90;;;;;;6771592;88;20196;-79
2022/10/09 17:51:38;;;;;;;1999.90;999.90;;;14.50;99.90;;;;;;6764503;88;20184;-79
2022/10/09 18:01:39;;;;;;;1999.90;999.90;;;14.20;99.90;;;;;;6752550;87;20424;-80
2022/10/09 18:11:39;;;;;;;1999.90;999.90;;;13.90;99.90;;;;;;6756817;88;20185;-83
2022/10/09 18:21:42;;;;;;;1999.90;999.90;;;13.70;99.90;;;;;;6750345;88;20234;-81
2022/10/09 18:31:43;;;;;;;1999.90;999.90;;;13.40;99.90;;;;;;6761194;88;20227;-80
2022/10/09 18:41:44;;;;;;;1999.90;999.90;;;13.30;99.90;;;;;;6777637;88;20594;-81
2022/10/09 18:51:46;;;;;;;1999.90;999.90;;;13.20;99.90;;;;;;6776023;87;20184;-82
2022/10/09 19:01:47;;;;;;;1999.90;999.90;;;13.10;99.90;;;;;;6777670;88;20818;-81
2022/10/09 19:11:47;;;;;;;1999.90;999.90;;;13.10;99.90;;;;;;6770691;88;20268;-82
2022/10/09 19:21:48;;;;;;;1999.90;999.90;;;12.90;99.90;;;;;;6761739;88;20185;-82
2022/10/09 19:31:50;;;;;;;1999.90;999.90;;;12.70;99.90;;;;;;6767833;87;20164;-81
2022/10/09 19:41:50;;;;;;;1999.90;999.90;;;12.50;99.90;;;;;;6761061;88;20181;-80
2022/10/09 19:51:51;;;;;;;1999.90;999.90;;;12.20;99.90;;;;;;6750229;88;20715;-80
2022/10/09 20:01:52;;;;;;;1999.90;999.90;;;12.10;99.90;;;;;;6748924;88;20183;-81
2022/10/09 20:11:52;;;;;;;1999.90;999.90;;;12.00;99.90;;;;;;6751361;88;20200;-81
2022/10/09 20:21:53;;;;;;;1999.90;999.90;;;11.80;99.90;;;;;;6738178;88;20193;-78
2022/10/09 20:31:54;;;;;;;1999.90;999.90;;;11.60;99.90;;;;;;6739752;88;20219;-80
2022/10/09 20:41:54;;;;;;;1999.90;999.90;;;11.30;99.90;;;;;;6744480;88;20195;-79
2022/10/09 20:51:55;;;;;;;1999.90;999.90;;;11.40;99.90;;;;;;6741656;88;21028;-79
2022/10/09 21:01:56;;;;;;;1999.90;999.90;;;11.30;99.90;;;;;;6739208;88;20739;-79
2022/10/09 21:11:56;;;;;;;1999.90;999.90;;;11.30;99.90;;;;;;6741389;88;20259;-79
2022/10/09 21:21:57;;;;;;;1999.90;999.90;;;11.30;99.90;;;;;;6727691;88;20267;-79
2022/10/09 21:32:38;;;;;;;1999.90;999.90;;;11.30;99.90;;;;;;6748424;77;20200;-78
2022/10/09 21:42:39;;;;;;;1999.90;999.90;;;11.30;99.90;;;;;;6737036;88;20245;-78
2022/10/09 21:52:39;;;;;;;1999.90;999.90;;;11.20;99.90;;;;;;6743434;88;20687;-78
2022/10/09 22:02:40;;;;;;;1999.90;999.90;;;11.00;99.90;;;;;;6739525;88;20615;-78
2022/10/09 22:12:40;;;;;;;1999.90;999.90;;;10.60;99.90;;;;;;6743140;88;20187;-80
2022/10/09 22:22:41;;;;;;;1999.90;999.90;;;10.40;99.90;;;;;;6742835;88;20855;-79
2022/10/09 22:32:41;;;;;;;1999.90;999.90;;;10.30;99.90;;;;;;6741281;88;20304;-78
2022/10/09 22:42:42;;;;;;;1999.90;999.90;;;10.30;99.90;;;;;;6743114;88;20291;-78
2022/10/09 22:52:42;;;;;;;1999.90;999.90;;;10.30;99.90;;;;;;6738920;88;20177;-79
2022/10/09 23:02:43;;;;;;;1999.90;999.90;;;10.20;99.90;;;;;;6742494;88;20192;-79
2022/10/09 23:12:46;;;;;;;1999.90;999.90;;;10.00;99.90;;;;;;6743771;88;20244;-79
2022/10/09 23:22:46;;;;;;;1999.90;999.90;;;10.30;99.90;;;;;;6743652;88;20196;-79
2022/10/09 23:32:46;;;;;;;1999.90;999.90;;;10.50;99.90;;;;;;6743138;88;20607;-79
2022/10/09 23:42:47;;;;;;;1999.90;999.90;;;10.30;99.90;;;;;;6745793;88;21075;-79
2022/10/09 23:52:47;;;;;;;1999.90;999.90;;;10.30;99.90;;;;;;6742722;88;20229;-79
